Homeworth, Ohio
Current Conditions -  °F | °C
As of 10:51 PM on Saturday 22 Nov 2014 (Local Time) from KCAK Reporting Station
Overcast Overcast  
Wind Chill: 41°   Ceiling: 4600
Heat Index: 46°   Visibility: 10mi
Dew Point: 33°   Wind: 10mph
Humidity: 61%   Direction: 220°SW
Pressure: 30.07"   Gusts: NA
Location:  40.84°N, 81.07°W
Report Text: KCAK 230351Z 22009KT 10SM BKN046 OVC060 08/01 A3007 RMK AO2 RAE35 SLP189 P0000 T00780006 $
Loading
Personal Weather Stations






























Interactive Weather Map New forecast layout! Learn more

10-Day Weather Forecast

Advertisements
Track Severe Weather on mobile